sensor_id;sensor_type;location;lat;lon;timestamp;pressure;altitude;pressure_sealevel;temperature;humidity
43119;BME280;28729;49.838;8.650;2023-08-08T00:03:15;99833.22;;;13.88;100.00
43119;BME280;28729;49.838;8.650;2023-08-08T00:07:17;99832.13;;;13.89;100.00
43119;BME280;28729;49.838;8.650;2023-08-08T00:11:19;99835.19;;;13.93;100.00
43119;BME280;28729;49.838;8.650;2023-08-08T00:15:21;99828.53;;;13.94;100.00
43119;BME280;28729;49.838;8.650;2023-08-08T00:19:22;99828.81;;;13.93;100.00
43119;BME280;28729;49.838;8.650;2023-08-08T00:23:24;99830.75;;;13.92;100.00
43119;BME280;28729;49.838;8.650;2023-08-08T00:27:26;99821.06;;;13.95;100.00
43119;BME280;28729;49.838;8.650;2023-08-08T00:31:28;99820.78;;;13.96;100.00
43119;BME280;28729;49.838;8.650;2023-08-08T00:35:29;99823.56;;;13.96;100.00
43119;BME280;28729;49.838;8.650;2023-08-08T00:39:31;99810.50;;;13.91;100.00
43119;BME280;28729;49.838;8.650;2023-08-08T00:43:33;99812.19;;;13.87;100.00
43119;BME280;28729;49.838;8.650;2023-08-08T00:47:35;99821.03;;;13.84;100.00
43119;BME280;28729;49.838;8.650;2023-08-08T00:51:37;99811.31;;;13.82;100.00
43119;BME280;28729;49.838;8.650;2023-08-08T00:55:39;99813.84;;;13.83;100.00
43119;BME280;28729;49.838;8.650;2023-08-08T00:59:41;99803.59;;;13.84;100.00
43119;BME280;28729;49.838;8.650;2023-08-08T01:03:43;99805.78;;;13.82;100.00
43119;BME280;28729;49.838;8.650;2023-08-08T01:07:57;99815.19;;;13.81;100.00
43119;BME280;28729;49.838;8.650;2023-08-08T01:12:03;99803.53;;;13.74;100.00
43119;BME280;28729;49.838;8.650;2023-08-08T01:16:07;99807.38;;;13.67;100.00
43119;BME280;28729;49.838;8.650;2023-08-08T01:20:10;99807.06;;;13.59;100.00
43119;BME280;28729;49.838;8.650;2023-08-08T01:24:17;99798.44;;;13.50;100.00
43119;BME280;28729;49.838;8.650;2023-08-08T01:28:23;99792.03;;;13.39;100.00
43119;BME280;28729;49.838;8.650;2023-08-08T01:32:25;99797.53;;;13.34;100.00
43119;BME280;28729;49.838;8.650;2023-08-08T01:36:49;99803.91;;;13.35;100.00
43119;BME280;28729;49.838;8.650;2023-08-08T01:40:55;99799.50;;;13.39;100.00
43119;BME280;28729;49.838;8.650;2023-08-08T01:44:59;99800.63;;;13.43;100.00
43119;BME280;28729;49.838;8.650;2023-08-08T01:49:02;99797.84;;;13.43;100.00
43119;BME280;28729;49.838;8.650;2023-08-08T01:53:04;99805.06;;;13.44;100.00
43119;BME280;28729;49.838;8.650;2023-08-08T01:57:06;99799.25;;;13.45;100.00
43119;BME280;28729;49.838;8.650;2023-08-08T02:01:08;99793.44;;;13.42;100.00
43119;BME280;28729;49.838;8.650;2023-08-08T02:05:10;99793.13;;;13.33;100.00
43119;BME280;28729;49.838;8.650;2023-08-08T02:09:11;99802.41;;;13.22;100.00
43119;BME280;28729;49.838;8.650;2023-08-08T02:13:16;99809.81;;;13.11;100.00
43119;BME280;28729;49.838;8.650;2023-08-08T02:17:17;99796.50;;;13.08;100.00
43119;BME280;28729;49.838;8.650;2023-08-08T02:21:20;99800.94;;;13.04;100.00
43119;BME280;28729;49.838;8.650;2023-08-08T02:25:24;99786.50;;;12.97;100.00
43119;BME280;28729;49.838;8.650;2023-08-08T02:29:26;99787.53;;;12.86;100.00
43119;BME280;28729;49.838;8.650;2023-08-08T02:33:27;99791.84;;;12.71;100.00
43119;BME280;28729;49.838;8.650;2023-08-08T02:37:29;99784.84;;;12.59;100.00
43119;BME280;28729;49.838;8.650;2023-08-08T02:41:31;99790.53;;;12.47;100.00
43119;BME280;28729;49.838;8.650;2023-08-08T02:45:33;99789.59;;;12.36;100.00
43119;BME280;28729;49.838;8.650;2023-08-08T02:49:35;99775.13;;;12.24;100.00
43119;BME280;28729;49.838;8.650;2023-08-08T02:53:37;99776.69;;;12.15;100.00
43119;BME280;28729;49.838;8.650;2023-08-08T02:57:39;99766.38;;;12.05;100.00
43119;BME280;28729;49.838;8.650;2023-08-08T03:01:41;99774.31;;;12.01;100.00
43119;BME280;28729;49.838;8.650;2023-08-08T03:05:50;99767.09;;;11.95;100.00
43119;BME280;28729;49.838;8.650;2023-08-08T03:09:54;99774.47;;;11.90;100.00
43119;BME280;28729;49.838;8.650;2023-08-08T03:13:56;99778.25;;;11.83;100.00
43119;BME280;28729;49.838;8.650;2023-08-08T03:17:59;99767.16;;;11.78;100.00
43119;BME280;28729;49.838;8.650;2023-08-08T03:22:01;99780.63;;;11.75;100.00
43119;BME280;28729;49.838;8.650;2023-08-08T03:26:04;99778.66;;;11.70;100.00
43119;BME280;28729;49.838;8.650;2023-08-08T03:30:06;99783.03;;;11.66;100.00
43119;BME280;28729;49.838;8.650;2023-08-08T03:34:14;99771.66;;;11.62;100.00
43119;BME280;28729;49.838;8.650;2023-08-08T03:38:16;99778.78;;;11.58;100.00
43119;BME280;28729;49.838;8.650;2023-08-08T03:42:19;99779.03;;;11.57;100.00
43119;BME280;28729;49.838;8.650;2023-08-08T03:46:21;99782.31;;;11.54;100.00
43119;BME280;28729;49.838;8.650;2023-08-08T03:50:23;99781.75;;;11.52;100.00
43119;BME280;28729;49.838;8.650;2023-08-08T03:54:25;99794.38;;;11.48;100.00
43119;BME280;28729;49.838;8.650;2023-08-08T03:58:27;99785.78;;;11.44;100.00
43119;BME280;28729;49.838;8.650;2023-08-08T04:02:29;99781.38;;;11.43;100.00
43119;BME280;28729;49.838;8.650;2023-08-08T04:06:31;99781.59;;;11.41;100.00
43119;BME280;28729;49.838;8.650;2023-08-08T04:10:33;99779.13;;;11.40;100.00
43119;BME280;28729;49.838;8.650;2023-08-08T04:14:35;99775.53;;;11.39;100.00
43119;BME280;28729;49.838;8.650;2023-08-08T04:18:37;99779.13;;;11.40;100.00
43119;BME280;28729;49.838;8.650;2023-08-08T04:22:38;99769.75;;;11.41;100.00
43119;BME280;28729;49.838;8.650;2023-08-08T04:26:40;99776.69;;;11.44;100.00
43119;BME280;28729;49.838;8.650;2023-08-08T04:30:42;99790.47;;;11.44;100.00
43119;BME280;28729;49.838;8.650;2023-08-08T04:34:44;99790.47;;;11.44;100.00
43119;BME280;28729;49.838;8.650;2023-08-08T04:38:47;99790.78;;;11.47;100.00
43119;BME280;28729;49.838;8.650;2023-08-08T04:42:48;99789.72;;;11.48;100.00
43119;BME280;28729;49.838;8.650;2023-08-08T04:46:51;99786.09;;;11.48;100.00
43119;BME280;28729;49.838;8.650;2023-08-08T04:50:52;99783.94;;;11.50;100.00
43119;BME280;28729;49.838;8.650;2023-08-08T04:54:54;99793.88;;;11.51;100.00
43119;BME280;28729;49.838;8.650;2023-08-08T04:58:56;99788.69;;;11.54;100.00
43119;BME280;28729;49.838;8.650;2023-08-08T05:02:58;99779.03;;;11.57;100.00
43119;BME280;28729;49.838;8.650;2023-08-08T05:07:00;99773.59;;;11.62;100.00
43119;BME280;28729;49.838;8.650;2023-08-08T05:11:02;99781.09;;;11.67;100.00
43119;BME280;28729;49.838;8.650;2023-08-08T05:15:05;99766.78;;;11.70;100.00
43119;BME280;28729;49.838;8.650;2023-08-08T05:19:07;99768.75;;;11.74;100.00
43119;BME280;28729;49.838;8.650;2023-08-08T05:23:09;99764.72;;;11.82;100.00
43119;BME280;28729;49.838;8.650;2023-08-08T05:27:10;99767.06;;;11.90;100.00
43119;BME280;28729;49.838;8.650;2023-08-08T05:31:13;99772.09;;;11.98;100.00
43119;BME280;28729;49.838;8.650;2023-08-08T05:35:15;99770.22;;;12.04;100.00
43119;BME280;28729;49.838;8.650;2023-08-08T05:39:17;99773.63;;;12.11;100.00
43119;BME280;28729;49.838;8.650;2023-08-08T05:43:19;99770.94;;;12.21;100.00
43119;BME280;28729;49.838;8.650;2023-08-08T05:47:22;99771.06;;;12.37;100.00
43119;BME280;28729;49.838;8.650;2023-08-08T05:51:24;99768.41;;;12.47;100.00
43119;BME280;28729;49.838;8.650;2023-08-08T05:55:26;99761.59;;;12.60;100.00
43119;BME280;28729;49.838;8.650;2023-08-08T05:59:28;99767.78;;;12.72;100.00
43119;BME280;28729;49.838;8.650;2023-08-08T06:03:30;99780.28;;;12.80;100.00
43119;BME280;28729;49.838;8.650;2023-08-08T06:07:32;99784.78;;;12.91;100.00
43119;BME280;28729;49.838;8.650;2023-08-08T06:11:34;99779.31;;;13.01;100.00
43119;BME280;28729;49.838;8.650;2023-08-08T06:15:36;99780.53;;;13.20;100.00
43119;BME280;28729;49.838;8.650;2023-08-08T06:19:38;99779.81;;;13.35;100.00
43119;BME280;28729;49.838;8.650;2023-08-08T06:23:40;99783.19;;;13.42;100.00
43119;BME280;28729;49.838;8.650;2023-08-08T06:27:41;99785.75;;;13.54;100.00
43119;BME280;28729;49.838;8.650;2023-08-08T06:31:44;99786.34;;;13.66;100.00
43119;BME280;28729;49.838;8.650;2023-08-08T06:35:47;99794.13;;;13.80;100.00
43119;BME280;28729;49.838;8.650;2023-08-08T06:39:50;99788.34;;;13.91;100.00
43119;BME280;28729;49.838;8.650;2023-08-08T06:43:52;99784.50;;;14.03;100.00
43119;BME280;28729;49.838;8.650;2023-08-08T06:47:54;99780.94;;;14.18;100.00
43119;BME280;28729;49.838;8.650;2023-08-08T06:51:56;99774.31;;;14.39;100.00
43119;BME280;28729;49.838;8.650;2023-08-08T06:55:58;99758.00;;;14.58;100.00
43119;BME280;28729;49.838;8.650;2023-08-08T07:00:00;99772.44;;;14.75;100.00
43119;BME280;28729;49.838;8.650;2023-08-08T07:04:02;99770.47;;;14.91;100.00
43119;BME280;28729;49.838;8.650;2023-08-08T07:08:03;99773.78;;;14.98;100.00
43119;BME280;28729;49.838;8.650;2023-08-08T07:12:05;99767.41;;;15.08;100.00
43119;BME280;28729;49.838;8.650;2023-08-08T07:16:07;99764.53;;;15.34;100.00
43119;BME280;28729;49.838;8.650;2023-08-08T07:20:09;99762.50;;;15.60;100.00
43119;BME280;28729;49.838;8.650;2023-08-08T07:24:16;99766.03;;;15.86;100.00
43119;BME280;28729;49.838;8.650;2023-08-08T07:28:18;99767.25;;;16.14;100.00
43119;BME280;28729;49.838;8.650;2023-08-08T07:32:20;99761.00;;;16.32;100.00
43119;BME280;28729;49.838;8.650;2023-08-08T07:36:22;99770.06;;;16.48;100.00
43119;BME280;28729;49.838;8.650;2023-08-08T07:40:23;99768.41;;;16.81;100.00
43119;BME280;28729;49.838;8.650;2023-08-08T07:44:25;99755.09;;;17.07;100.00
43119;BME280;28729;49.838;8.650;2023-08-08T07:48:27;99762.59;;;17.31;100.00
43119;BME280;28729;49.838;8.650;2023-08-08T07:52:29;99764.63;;;17.73;100.00
43119;BME280;28729;49.838;8.650;2023-08-08T07:56:31;99750.81;;;18.06;99.83
43119;BME280;28729;49.838;8.650;2023-08-08T08:00:33;99755.78;;;18.28;98.04
43119;BME280;28729;49.838;8.650;2023-08-08T08:04:34;99756.09;;;18.27;96.05
43119;BME280;28729;49.838;8.650;2023-08-08T08:08:37;99751.19;;;18.18;94.59
43119;BME280;28729;49.838;8.650;2023-08-08T08:12:40;99746.66;;;18.22;94.16
43119;BME280;28729;49.838;8.650;2023-08-08T08:16:42;99748.53;;;18.46;95.85
43119;BME280;28729;49.838;8.650;2023-08-08T08:20:44;99749.09;;;18.81;90.97
43119;BME280;28729;49.838;8.650;2023-08-08T08:24:46;99744.31;;;19.14;83.11
43119;BME280;28729;49.838;8.650;2023-08-08T08:28:48;99743.50;;;19.41;80.24
43119;BME280;28729;49.838;8.650;2023-08-08T08:32:50;99732.00;;;19.56;77.74
43119;BME280;28729;49.838;8.650;2023-08-08T08:36:52;99729.41;;;19.60;75.59
43119;BME280;28729;49.838;8.650;2023-08-08T08:40:54;99732.31;;;19.69;75.09
43119;BME280;28729;49.838;8.650;2023-08-08T08:44:58;99730.53;;;19.87;73.16
43119;BME280;28729;49.838;8.650;2023-08-08T08:49:02;99741.59;;;19.92;71.61
43119;BME280;28729;49.838;8.650;2023-08-08T08:53:04;99738.28;;;19.90;68.25
43119;BME280;28729;49.838;8.650;2023-08-08T08:57:07;99738.50;;;19.93;66.22
43119;BME280;28729;49.838;8.650;2023-08-08T09:01:09;99739.00;;;19.95;68.50
43119;BME280;28729;49.838;8.650;2023-08-08T09:05:12;99735.72;;;19.93;66.99
43119;BME280;28729;49.838;8.650;2023-08-08T09:09:15;99731.94;;;20.12;67.46
43119;BME280;28729;49.838;8.650;2023-08-08T09:13:17;99736.25;;;20.18;64.95
43119;BME280;28729;49.838;8.650;2023-08-08T09:17:19;99721.66;;;20.21;65.95
43119;BME280;28729;49.838;8.650;2023-08-08T09:21:26;99726.78;;;20.27;64.77
43119;BME280;28729;49.838;8.650;2023-08-08T09:25:28;99728.13;;;20.30;66.11
43119;BME280;28729;49.838;8.650;2023-08-08T09:29:30;99724.84;;;20.51;64.33
43119;BME280;28729;49.838;8.650;2023-08-08T09:33:32;99724.75;;;20.56;64.34
43119;BME280;28729;49.838;8.650;2023-08-08T09:37:33;99721.84;;;20.47;61.22
43119;BME280;28729;49.838;8.650;2023-08-08T09:41:35;99723.69;;;20.52;60.56
43119;BME280;28729;49.838;8.650;2023-08-08T09:45:39;99721.16;;;20.64;61.28
43119;BME280;28729;49.838;8.650;2023-08-08T09:49:44;99721.66;;;20.88;61.37
43119;BME280;28729;49.838;8.650;2023-08-08T09:53:46;99729.56;;;20.86;58.01
43119;BME280;28729;49.838;8.650;2023-08-08T09:57:50;99716.13;;;20.52;57.63
43119;BME280;28729;49.838;8.650;2023-08-08T10:01:56;99720.06;;;20.29;59.14
43119;BME280;28729;49.838;8.650;2023-08-08T10:06:00;99714.97;;;20.31;61.63
43119;BME280;28729;49.838;8.650;2023-08-08T10:10:02;99722.56;;;20.75;59.94
43119;BME280;28729;49.838;8.650;2023-08-08T10:14:05;99718.66;;;21.16;56.69
43119;BME280;28729;49.838;8.650;2023-08-08T10:18:07;99712.81;;;21.35;55.34
43119;BME280;28729;49.838;8.650;2023-08-08T10:22:09;99722.16;;;21.61;53.87
43119;BME280;28729;49.838;8.650;2023-08-08T10:26:18;99709.31;;;21.69;52.64
43119;BME280;28729;49.838;8.650;2023-08-08T10:30:20;99716.72;;;21.74;53.71
43119;BME280;28729;49.838;8.650;2023-08-08T10:34:27;99713.00;;;21.96;54.35
43119;BME280;28729;49.838;8.650;2023-08-08T10:38:45;99699.16;;;22.34;53.42
43119;BME280;28729;49.838;8.650;2023-08-08T10:42:48;99698.66;;;22.58;52.41
43119;BME280;28729;49.838;8.650;2023-08-08T10:46:51;99706.72;;;22.51;50.76
43119;BME280;28729;49.838;8.650;2023-08-08T10:50:55;99690.50;;;22.83;50.44
43119;BME280;28729;49.838;8.650;2023-08-08T10:55:01;99693.44;;;23.04;47.46
43119;BME280;28729;49.838;8.650;2023-08-08T10:59:13;99695.75;;;22.84;46.95
43119;BME280;28729;49.838;8.650;2023-08-08T11:03:17;99710.31;;;22.95;48.58
43119;BME280;28729;49.838;8.650;2023-08-08T11:07:20;99686.34;;;23.36;47.96
43119;BME280;28729;49.838;8.650;2023-08-08T11:11:23;99679.19;;;23.47;46.83
43119;BME280;28729;49.838;8.650;2023-08-08T11:15:25;99684.13;;;23.50;45.51
43119;BME280;28729;49.838;8.650;2023-08-08T11:19:28;99685.34;;;23.61;45.95
43119;BME280;28729;49.838;8.650;2023-08-08T11:23:33;99697.69;;;23.48;45.31
43119;BME280;28729;49.838;8.650;2023-08-08T11:27:39;99694.78;;;23.36;47.70
43119;BME280;28729;49.838;8.650;2023-08-08T11:31:43;99687.34;;;23.31;45.55
43119;BME280;28729;49.838;8.650;2023-08-08T11:35:45;99683.44;;;23.53;46.35
43119;BME280;28729;49.838;8.650;2023-08-08T11:39:48;99681.84;;;23.73;46.38
43119;BME280;28729;49.838;8.650;2023-08-08T11:43:51;99669.13;;;23.37;45.87
43119;BME280;28729;49.838;8.650;2023-08-08T11:47:54;99664.81;;;23.40;46.95
43119;BME280;28729;49.838;8.650;2023-08-08T11:51:56;99669.84;;;23.55;46.38
43119;BME280;28729;49.838;8.650;2023-08-08T11:55:59;99664.28;;;23.76;46.55
43119;BME280;28729;49.838;8.650;2023-08-08T12:00:06;99670.59;;;23.94;46.56
43119;BME280;28729;49.838;8.650;2023-08-08T12:04:13;99664.84;;;23.61;48.53
43119;BME280;28729;49.838;8.650;2023-08-08T12:08:19;99668.53;;;23.82;48.60
43119;BME280;28729;49.838;8.650;2023-08-08T12:12:21;99672.75;;;23.67;47.02
43119;BME280;28729;49.838;8.650;2023-08-08T12:16:28;99669.78;;;23.73;45.59
43119;BME280;28729;49.838;8.650;2023-08-08T12:20:31;99659.34;;;24.15;45.37
43119;BME280;28729;49.838;8.650;2023-08-08T12:24:33;99671.63;;;24.52;46.68
43119;BME280;28729;49.838;8.650;2023-08-08T12:28:35;99662.63;;;24.71;44.51
43119;BME280;28729;49.838;8.650;2023-08-08T12:32:37;99652.47;;;25.04;44.07
43119;BME280;28729;49.838;8.650;2023-08-08T12:36:39;99659.56;;;25.22;39.79
43119;BME280;28729;49.838;8.650;2023-08-08T12:40:42;99652.72;;;26.25;39.60
43119;BME280;28729;49.838;8.650;2023-08-08T12:44:44;99654.34;;;26.82;37.57
43119;BME280;28729;49.838;8.650;2023-08-08T12:48:47;99658.16;;;26.74;36.83
43119;BME280;28729;49.838;8.650;2023-08-08T12:52:49;99663.97;;;25.97;37.14
43119;BME280;28729;49.838;8.650;2023-08-08T12:56:51;99665.22;;;25.59;38.04
43119;BME280;28729;49.838;8.650;2023-08-08T13:00:52;99657.75;;;25.79;37.70
43119;BME280;28729;49.838;8.650;2023-08-08T13:04:54;99659.91;;;25.57;37.63
43119;BME280;28729;49.838;8.650;2023-08-08T13:08:56;99652.41;;;25.37;37.88
43119;BME280;28729;49.838;8.650;2023-08-08T13:12:58;99648.72;;;24.87;38.50
43119;BME280;28729;49.838;8.650;2023-08-08T13:17:00;99646.56;;;24.18;39.40
43119;BME280;28729;49.838;8.650;2023-08-08T13:21:03;99643.38;;;23.56;40.87
43119;BME280;28729;49.838;8.650;2023-08-08T13:25:07;99634.41;;;23.63;40.40
43119;BME280;28729;49.838;8.650;2023-08-08T13:29:09;99624.81;;;23.34;40.29
43119;BME280;28729;49.838;8.650;2023-08-08T13:33:11;99643.94;;;22.73;41.11
43119;BME280;28729;49.838;8.650;2023-08-08T13:37:13;99650.41;;;22.04;42.45
43119;BME280;28729;49.838;8.650;2023-08-08T13:41:14;99647.44;;;21.74;43.05
43119;BME280;28729;49.838;8.650;2023-08-08T13:45:20;99641.66;;;21.71;43.76
43119;BME280;28729;49.838;8.650;2023-08-08T13:49:22;99644.63;;;21.57;44.84
43119;BME280;28729;49.838;8.650;2023-08-08T13:53:28;99637.44;;;22.17;44.10
43119;BME280;28729;49.838;8.650;2023-08-08T13:57:30;99632.28;;;23.01;43.36
43119;BME280;28729;49.838;8.650;2023-08-08T14:01:32;99625.47;;;24.90;40.56
43119;BME280;28729;49.838;8.650;2023-08-08T14:05:34;99619.34;;;25.13;40.63
43119;BME280;28729;49.838;8.650;2023-08-08T14:09:36;99619.56;;;24.71;41.22
43119;BME280;28729;49.838;8.650;2023-08-08T14:13:38;99617.31;;;24.31;41.11
43119;BME280;28729;49.838;8.650;2023-08-08T14:17:41;99609.56;;;23.74;41.36
43119;BME280;28729;49.838;8.650;2023-08-08T14:21:42;99611.69;;;23.47;42.17
43119;BME280;28729;49.838;8.650;2023-08-08T14:25:44;99611.53;;;23.43;42.53
43119;BME280;28729;49.838;8.650;2023-08-08T14:29:46;99609.97;;;23.55;42.51
43119;BME280;28729;49.838;8.650;2023-08-08T14:33:48;99612.06;;;23.37;43.02
43119;BME280;28729;49.838;8.650;2023-08-08T14:37:50;99611.72;;;23.17;43.11
43119;BME280;28729;49.838;8.650;2023-08-08T14:41:52;99617.41;;;22.91;43.81
43119;BME280;28729;49.838;8.650;2023-08-08T14:45:55;99623.38;;;22.25;45.08
43119;BME280;28729;49.838;8.650;2023-08-08T14:49:56;99634.41;;;21.61;47.10
43119;BME280;28729;49.838;8.650;2023-08-08T14:53:58;99643.50;;;21.09;48.57
43119;BME280;28729;49.838;8.650;2023-08-08T14:58:01;99647.00;;;20.84;50.29
43119;BME280;28729;49.838;8.650;2023-08-08T15:02:02;99648.06;;;20.65;51.53
43119;BME280;28729;49.838;8.650;2023-08-08T15:06:05;99656.16;;;20.44;52.48
43119;BME280;28729;49.838;8.650;2023-08-08T15:10:07;99656.41;;;20.12;54.33
43119;BME280;28729;49.838;8.650;2023-08-08T15:14:09;99660.97;;;20.08;55.23
43119;BME280;28729;49.838;8.650;2023-08-08T15:18:11;99656.53;;;20.07;55.29
43119;BME280;28729;49.838;8.650;2023-08-08T15:22:12;99648.75;;;20.03;56.53
43119;BME280;28729;49.838;8.650;2023-08-08T15:26:15;99655.88;;;20.10;56.49
43119;BME280;28729;49.838;8.650;2023-08-08T15:30:21;99659.91;;;20.17;56.88
43119;BME280;28729;49.838;8.650;2023-08-08T15:34:23;99654.44;;;20.12;57.82
43119;BME280;28729;49.838;8.650;2023-08-08T15:38:25;99652.19;;;20.00;58.64
43119;BME280;28729;49.838;8.650;2023-08-08T15:42:27;99657.00;;;19.86;59.66
43119;BME280;28729;49.838;8.650;2023-08-08T15:46:29;99646.25;;;19.79;59.38
43119;BME280;28729;49.838;8.650;2023-08-08T15:50:31;99655.38;;;19.71;60.29
43119;BME280;28729;49.838;8.650;2023-08-08T15:54:33;99653.31;;;19.63;60.99
43119;BME280;28729;49.838;8.650;2023-08-08T15:58:34;99647.97;;;19.67;61.09
43119;BME280;28729;49.838;8.650;2023-08-08T16:02:36;99648.63;;;19.86;60.54
43119;BME280;28729;49.838;8.650;2023-08-08T16:06:38;99650.09;;;20.06;60.24
43119;BME280;28729;49.838;8.650;2023-08-08T16:10:40;99655.78;;;20.15;59.72
43119;BME280;28729;49.838;8.650;2023-08-08T16:14:43;99656.66;;;20.24;60.79
43119;BME280;28729;49.838;8.650;2023-08-08T16:18:45;99654.78;;;20.56;60.05
43119;BME280;28729;49.838;8.650;2023-08-08T16:22:47;99646.50;;;20.82;59.13
43119;BME280;28729;49.838;8.650;2023-08-08T16:26:50;99654.63;;;20.92;58.54
43119;BME280;28729;49.838;8.650;2023-08-08T16:30:52;99656.38;;;20.79;59.90
43119;BME280;28729;49.838;8.650;2023-08-08T16:34:53;99664.41;;;20.72;60.64
43119;BME280;28729;49.838;8.650;2023-08-08T16:38:55;99664.78;;;20.79;60.27
43119;BME280;28729;49.838;8.650;2023-08-08T16:43:17;99668.94;;;20.90;58.93
43119;BME280;28729;49.838;8.650;2023-08-08T16:47:19;99666.25;;;20.77;58.47
43119;BME280;28729;49.838;8.650;2023-08-08T16:51:21;99666.69;;;20.47;59.90
43119;BME280;28729;49.838;8.650;2023-08-08T16:55:23;99674.78;;;20.26;60.23
43119;BME280;28729;49.838;8.650;2023-08-08T16:59:25;99658.75;;;20.18;61.12
43119;BME280;28729;49.838;8.650;2023-08-08T17:03:27;99650.81;;;20.12;61.13
43119;BME280;28729;49.838;8.650;2023-08-08T17:07:29;99652.44;;;20.13;61.60
43119;BME280;28729;49.838;8.650;2023-08-08T17:11:31;99654.81;;;20.19;61.91
43119;BME280;28729;49.838;8.650;2023-08-08T17:15:33;99642.94;;;20.14;62.72
43119;BME280;28729;49.838;8.650;2023-08-08T17:19:35;99653.59;;;20.12;63.71
43119;BME280;28729;49.838;8.650;2023-08-08T17:23:37;99641.25;;;20.13;63.96
43119;BME280;28729;49.838;8.650;2023-08-08T17:27:39;99650.00;;;20.11;64.25
43119;BME280;28729;49.838;8.650;2023-08-08T17:31:42;99652.38;;;20.04;65.43
43119;BME280;28729;49.838;8.650;2023-08-08T17:35:44;99654.63;;;19.93;66.39
43119;BME280;28729;49.838;8.650;2023-08-08T17:39:46;99642.66;;;19.79;67.83
43119;BME280;28729;49.838;8.650;2023-08-08T17:43:48;99648.97;;;19.71;67.76
43119;BME280;28729;49.838;8.650;2023-08-08T17:47:50;99652.91;;;19.56;69.18
43119;BME280;28729;49.838;8.650;2023-08-08T17:51:52;99653.97;;;19.46;70.24
43119;BME280;28729;49.838;8.650;2023-08-08T17:55:54;99659.75;;;19.36;70.63
43119;BME280;28729;49.838;8.650;2023-08-08T17:59:56;99658.13;;;19.35;71.10
43119;BME280;28729;49.838;8.650;2023-08-08T18:03:58;99664.34;;;19.32;71.76
43119;BME280;28729;49.838;8.650;2023-08-08T18:08:00;99667.84;;;19.24;73.02
43119;BME280;28729;49.838;8.650;2023-08-08T18:12:02;99667.66;;;19.20;73.01
43119;BME280;28729;49.838;8.650;2023-08-08T18:16:05;99657.91;;;19.18;73.71
43119;BME280;28729;49.838;8.650;2023-08-08T18:20:07;99656.06;;;19.13;73.58
43119;BME280;28729;49.838;8.650;2023-08-08T18:24:11;99645.53;;;19.10;73.62
43119;BME280;28729;49.838;8.650;2023-08-08T18:28:13;99647.25;;;19.06;74.65
43119;BME280;28729;49.838;8.650;2023-08-08T18:32:15;99631.75;;;19.00;74.92
43119;BME280;28729;49.838;8.650;2023-08-08T18:36:17;99643.88;;;18.95;75.32
43119;BME280;28729;49.838;8.650;2023-08-08T18:40:19;99650.06;;;18.92;76.54
43119;BME280;28729;49.838;8.650;2023-08-08T18:44:22;99647.03;;;18.88;76.36
43119;BME280;28729;49.838;8.650;2023-08-08T18:48:24;99634.03;;;18.84;76.65
43119;BME280;28729;49.838;8.650;2023-08-08T18:52:26;99646.94;;;18.80;77.23
43119;BME280;28729;49.838;8.650;2023-08-08T18:56:28;99643.13;;;18.76;78.10
43119;BME280;28729;49.838;8.650;2023-08-08T19:00:30;99645.97;;;18.71;79.09
43119;BME280;28729;49.838;8.650;2023-08-08T19:04:32;99654.75;;;18.64;80.09
43119;BME280;28729;49.838;8.650;2023-08-08T19:08:34;99654.00;;;18.58;80.61
43119;BME280;28729;49.838;8.650;2023-08-08T19:12:36;99658.84;;;18.53;81.02
43119;BME280;28729;49.838;8.650;2023-08-08T19:16:37;99644.28;;;18.42;82.20
43119;BME280;28729;49.838;8.650;2023-08-08T19:20:39;99647.75;;;18.34;82.69
43119;BME280;28729;49.838;8.650;2023-08-08T19:24:41;99642.78;;;18.31;83.24
43119;BME280;28729;49.838;8.650;2023-08-08T19:28:43;99646.72;;;18.30;83.41
43119;BME280;28729;49.838;8.650;2023-08-08T19:32:48;99660.66;;;18.30;83.92
43119;BME280;28729;49.838;8.650;2023-08-08T19:36:50;99649.50;;;18.30;83.55
43119;BME280;28729;49.838;8.650;2023-08-08T19:40:51;99652.28;;;18.30;83.71
43119;BME280;28729;49.838;8.650;2023-08-08T19:44:53;99660.13;;;18.28;84.45
43119;BME280;28729;49.838;8.650;2023-08-08T19:48:55;99661.28;;;18.27;84.47
43119;BME280;28729;49.838;8.650;2023-08-08T19:52:58;99665.19;;;18.26;85.44
43119;BME280;28729;49.838;8.650;2023-08-08T19:56:59;99659.47;;;18.17;86.64
43119;BME280;28729;49.838;8.650;2023-08-08T20:01:02;99661.13;;;18.18;87.34
43119;BME280;28729;49.838;8.650;2023-08-08T20:05:04;99657.28;;;18.14;86.58
43119;BME280;28729;49.838;8.650;2023-08-08T20:09:06;99661.75;;;18.15;86.50
43119;BME280;28729;49.838;8.650;2023-08-08T20:13:08;99663.78;;;18.09;86.72
43119;BME280;28729;49.838;8.650;2023-08-08T20:17:12;99654.34;;;18.05;86.20
43119;BME280;28729;49.838;8.650;2023-08-08T20:21:14;99657.69;;;18.07;85.68
43119;BME280;28729;49.838;8.650;2023-08-08T20:25:16;99653.63;;;17.99;85.74
43119;BME280;28729;49.838;8.650;2023-08-08T20:29:18;99654.53;;;17.95;85.93
43119;BME280;28729;49.838;8.650;2023-08-08T20:33:20;99659.28;;;17.94;86.49
43119;BME280;28729;49.838;8.650;2023-08-08T20:37:22;99656.28;;;17.91;87.29
43119;BME280;28729;49.838;8.650;2023-08-08T20:41:25;99658.00;;;17.87;88.25
43119;BME280;28729;49.838;8.650;2023-08-08T20:45:27;99657.56;;;17.80;88.71
43119;BME280;28729;49.838;8.650;2023-08-08T20:49:29;99658.41;;;17.75;88.58
43119;BME280;28729;49.838;8.650;2023-08-08T20:53:32;99649.00;;;17.71;89.29
43119;BME280;28729;49.838;8.650;2023-08-08T20:57:33;99650.75;;;17.67;90.30
43119;BME280;28729;49.838;8.650;2023-08-08T21:01:35;99656.59;;;17.65;91.57
43119;BME280;28729;49.838;8.650;2023-08-08T21:05:37;99663.91;;;17.61;92.85
43119;BME280;28729;49.838;8.650;2023-08-08T21:09:42;99673.47;;;17.55;95.10
43119;BME280;28729;49.838;8.650;2023-08-08T21:13:44;99678.13;;;17.41;97.82
43119;BME280;28729;49.838;8.650;2023-08-08T21:17:47;99668.88;;;17.21;100.00
43119;BME280;28729;49.838;8.650;2023-08-08T21:21:50;99673.03;;;17.00;100.00